sensor_id;sensor_type;location;lat;lon;timestamp;pressure;altitude;pressure_sealevel;temperature;humidity
5380;BME280;2713;42.680;23.310;2023-03-13T00:00:25;95327.06;;;6.33;45.99
5380;BME280;2713;42.680;23.310;2023-03-13T00:02:52;95323.38;;;6.18;46.58
5380;BME280;2713;42.680;23.310;2023-03-13T00:05:19;95327.28;;;6.22;46.85
5380;BME280;2713;42.680;23.310;2023-03-13T00:07:47;95337.00;;;6.28;46.05
5380;BME280;2713;42.680;23.310;2023-03-13T00:10:14;95330.97;;;6.37;46.39
5380;BME280;2713;42.680;23.310;2023-03-13T00:12:41;95319.09;;;6.27;46.11
5380;BME280;2713;42.680;23.310;2023-03-13T00:15:08;95327.13;;;6.24;46.50
5380;BME280;2713;42.680;23.310;2023-03-13T00:17:35;95334.38;;;6.38;46.33
5380;BME280;2713;42.680;23.310;2023-03-13T00:20:02;95342.38;;;6.17;46.36
5380;BME280;2713;42.680;23.310;2023-03-13T00:22:30;95338.72;;;6.20;46.99
5380;BME280;2713;42.680;23.310;2023-03-13T00:24:58;95345.88;;;6.26;47.26
5380;BME280;2713;42.680;23.310;2023-03-13T00:27:24;95337.22;;;6.17;46.16
5380;BME280;2713;42.680;23.310;2023-03-13T00:29:51;95309.84;;;6.06;46.58
5380;BME280;2713;42.680;23.310;2023-03-13T00:32:18;95344.63;;;6.30;46.49
5380;BME280;2713;42.680;23.310;2023-03-13T00:34:45;95340.16;;;6.04;45.99
5380;BME280;2713;42.680;23.310;2023-03-13T00:37:13;95339.97;;;6.16;46.37
5380;BME280;2713;42.680;23.310;2023-03-13T00:39:40;95338.63;;;6.11;46.88
5380;BME280;2713;42.680;23.310;2023-03-13T00:42:08;95345.06;;;6.25;45.70
5380;BME280;2713;42.680;23.310;2023-03-13T00:44:35;95344.97;;;6.17;46.35
5380;BME280;2713;42.680;23.310;2023-03-13T00:47:01;95345.94;;;6.16;45.59
5380;BME280;2713;42.680;23.310;2023-03-13T00:49:29;95338.19;;;6.16;46.21
5380;BME280;2713;42.680;23.310;2023-03-13T00:51:56;95345.66;;;6.19;45.61
5380;BME280;2713;42.680;23.310;2023-03-13T00:54:23;95343.41;;;6.24;46.24
5380;BME280;2713;42.680;23.310;2023-03-13T00:56:50;95330.16;;;6.19;46.00
5380;BME280;2713;42.680;23.310;2023-03-13T00:59:18;95340.28;;;6.03;46.20
5380;BME280;2713;42.680;23.310;2023-03-13T01:01:45;95327.91;;;6.06;46.23
5380;BME280;2713;42.680;23.310;2023-03-13T01:04:12;95334.19;;;6.04;46.32
5380;BME280;2713;42.680;23.310;2023-03-13T01:06:40;95333.59;;;6.10;46.43
5380;BME280;2713;42.680;23.310;2023-03-13T01:09:10;95339.50;;;6.02;45.98
5380;BME280;2713;42.680;23.310;2023-03-13T01:11:39;95328.91;;;6.23;46.00
5380;BME280;2713;42.680;23.310;2023-03-13T01:14:08;95336.47;;;6.07;45.42
5380;BME280;2713;42.680;23.310;2023-03-13T01:16:37;95329.69;;;6.06;46.58
5380;BME280;2713;42.680;23.310;2023-03-13T01:19:05;95330.56;;;5.97;45.96
5380;BME280;2713;42.680;23.310;2023-03-13T01:21:33;95325.31;;;6.06;46.08
5380;BME280;2713;42.680;23.310;2023-03-13T01:24:01;95331.53;;;6.13;46.41
5380;BME280;2713;42.680;23.310;2023-03-13T01:26:28;95329.03;;;6.22;46.21
5380;BME280;2713;42.680;23.310;2023-03-13T01:28:55;95334.88;;;6.24;45.87
5380;BME280;2713;42.680;23.310;2023-03-13T01:31:24;95341.81;;;6.23;45.88
5380;BME280;2713;42.680;23.310;2023-03-13T01:33:56;95346.28;;;6.21;45.38
5380;BME280;2713;42.680;23.310;2023-03-13T01:36:25;95341.88;;;6.31;45.50
5380;BME280;2713;42.680;23.310;2023-03-13T01:38:53;95349.69;;;6.22;46.01
5380;BME280;2713;42.680;23.310;2023-03-13T01:41:22;95348.69;;;6.32;45.15
5380;BME280;2713;42.680;23.310;2023-03-13T01:43:49;95353.00;;;6.14;45.37
5380;BME280;2713;42.680;23.310;2023-03-13T01:46:17;95358.34;;;6.03;46.40
5380;BME280;2713;42.680;23.310;2023-03-13T01:49:11;95359.63;;;5.99;45.78
5380;BME280;2713;42.680;23.310;2023-03-13T01:52:05;95354.63;;;6.15;45.60
5380;BME280;2713;42.680;23.310;2023-03-13T01:54:40;95351.88;;;5.99;46.02
5380;BME280;2713;42.680;23.310;2023-03-13T01:57:12;95352.25;;;6.04;46.25
5380;BME280;2713;42.680;23.310;2023-03-13T01:59:44;95354.69;;;6.05;46.63
5380;BME280;2713;42.680;23.310;2023-03-13T02:02:13;95360.16;;;5.93;46.35
5380;BME280;2713;42.680;23.310;2023-03-13T02:04:45;95359.16;;;6.03;46.41
5380;BME280;2713;42.680;23.310;2023-03-13T02:07:15;95353.13;;;5.95;47.14
5380;BME280;2713;42.680;23.310;2023-03-13T02:09:45;95353.41;;;5.92;47.17
5380;BME280;2713;42.680;23.310;2023-03-13T02:12:18;95358.09;;;6.06;46.53
5380;BME280;2713;42.680;23.310;2023-03-13T02:14:49;95348.78;;;6.13;47.33
5380;BME280;2713;42.680;23.310;2023-03-13T02:17:17;95372.28;;;6.10;47.17
5380;BME280;2713;42.680;23.310;2023-03-13T02:19:47;95361.69;;;6.13;46.70
5380;BME280;2713;42.680;23.310;2023-03-13T02:22:21;95368.59;;;5.95;47.82
5380;BME280;2713;42.680;23.310;2023-03-13T02:24:53;95369.81;;;5.91;47.47
5380;BME280;2713;42.680;23.310;2023-03-13T02:27:25;95377.03;;;5.87;47.67
5380;BME280;2713;42.680;23.310;2023-03-13T02:29:52;95378.19;;;6.02;47.25
5380;BME280;2713;42.680;23.310;2023-03-13T02:32:20;95377.16;;;5.95;46.79
5380;BME280;2713;42.680;23.310;2023-03-13T02:34:52;95388.19;;;5.88;47.14
5380;BME280;2713;42.680;23.310;2023-03-13T02:37:22;95392.38;;;5.89;47.54
5380;BME280;2713;42.680;23.310;2023-03-13T02:39:51;95398.75;;;5.85;47.08
5380;BME280;2713;42.680;23.310;2023-03-13T02:42:20;95404.19;;;5.82;47.32
5380;BME280;2713;42.680;23.310;2023-03-13T02:44:50;95405.81;;;5.83;47.12
5380;BME280;2713;42.680;23.310;2023-03-13T02:47:18;95410.06;;;5.74;46.86
5380;BME280;2713;42.680;23.310;2023-03-13T02:49:47;95422.44;;;5.61;47.75
5380;BME280;2713;42.680;23.310;2023-03-13T02:52:21;95413.91;;;5.60;48.11
5380;BME280;2713;42.680;23.310;2023-03-13T02:54:53;95420.75;;;5.79;47.57
5380;BME280;2713;42.680;23.310;2023-03-13T02:57:21;95423.13;;;6.00;46.72
5380;BME280;2713;42.680;23.310;2023-03-13T02:59:50;95420.09;;;6.14;46.31
5380;BME280;2713;42.680;23.310;2023-03-13T03:02:16;95413.94;;;5.97;47.74
5380;BME280;2713;42.680;23.310;2023-03-13T03:04:43;95415.41;;;5.53;49.38
5380;BME280;2713;42.680;23.310;2023-03-13T03:07:12;95421.94;;;5.38;51.04
5380;BME280;2713;42.680;23.310;2023-03-13T03:09:39;95415.72;;;5.41;51.45
5380;BME280;2713;42.680;23.310;2023-03-13T03:12:12;95417.59;;;5.39;51.76
5380;BME280;2713;42.680;23.310;2023-03-13T03:14:39;95420.78;;;5.14;51.78
5380;BME280;2713;42.680;23.310;2023-03-13T03:17:12;95433.22;;;5.28;52.04
5380;BME280;2713;42.680;23.310;2023-03-13T03:19:40;95440.94;;;5.28;52.87
5380;BME280;2713;42.680;23.310;2023-03-13T03:22:08;95445.28;;;5.46;51.73
5380;BME280;2713;42.680;23.310;2023-03-13T03:24:35;95457.88;;;5.49;51.67
5380;BME280;2713;42.680;23.310;2023-03-13T03:27:03;95456.25;;;5.48;51.42
5380;BME280;2713;42.680;23.310;2023-03-13T03:29:36;95460.06;;;5.54;52.38
5380;BME280;2713;42.680;23.310;2023-03-13T03:32:04;95466.44;;;5.40;51.89
5380;BME280;2713;42.680;23.310;2023-03-13T03:34:33;95463.34;;;5.27;52.62
5380;BME280;2713;42.680;23.310;2023-03-13T03:37:00;95463.06;;;5.40;52.22
5380;BME280;2713;42.680;23.310;2023-03-13T03:39:27;95460.75;;;5.46;51.45
5380;BME280;2713;42.680;23.310;2023-03-13T03:41:55;95468.75;;;5.43;51.38
5380;BME280;2713;42.680;23.310;2023-03-13T03:44:23;95463.59;;;5.43;51.53
5380;BME280;2713;42.680;23.310;2023-03-13T03:46:55;95490.31;;;5.33;51.77
5380;BME280;2713;42.680;23.310;2023-03-13T03:49:23;95494.81;;;5.21;51.17
5380;BME280;2713;42.680;23.310;2023-03-13T03:51:51;95500.09;;;5.29;51.22
5380;BME280;2713;42.680;23.310;2023-03-13T03:54:24;95490.75;;;5.09;51.56
5380;BME280;2713;42.680;23.310;2023-03-13T03:56:51;95493.72;;;5.14;51.69
5380;BME280;2713;42.680;23.310;2023-03-13T03:59:18;95501.88;;;5.09;51.68
5380;BME280;2713;42.680;23.310;2023-03-13T04:01:47;95500.34;;;4.97;51.31
5380;BME280;2713;42.680;23.310;2023-03-13T04:04:19;95502.00;;;4.98;51.23
5380;BME280;2713;42.680;23.310;2023-03-13T04:06:51;95499.28;;;5.00;51.86
5380;BME280;2713;42.680;23.310;2023-03-13T04:09:19;95509.28;;;4.84;51.83
5380;BME280;2713;42.680;23.310;2023-03-13T04:11:46;95509.31;;;5.03;51.90
5380;BME280;2713;42.680;23.310;2023-03-13T04:14:13;95523.13;;;4.92;52.03
5380;BME280;2713;42.680;23.310;2023-03-13T04:16:42;95531.00;;;5.00;52.49
5380;BME280;2713;42.680;23.310;2023-03-13T04:19:09;95527.63;;;5.00;51.86
5380;BME280;2713;42.680;23.310;2023-03-13T04:21:36;95531.00;;;5.00;52.33
5380;BME280;2713;42.680;23.310;2023-03-13T04:24:10;95533.28;;;4.94;51.95
5380;BME280;2713;42.680;23.310;2023-03-13T04:26:39;95535.34;;;5.00;52.50
5380;BME280;2713;42.680;23.310;2023-03-13T04:29:09;95537.22;;;4.98;53.00
5380;BME280;2713;42.680;23.310;2023-03-13T04:31:46;95544.56;;;4.93;52.41
5380;BME280;2713;42.680;23.310;2023-03-13T04:34:31;95549.16;;;4.89;52.02
5380;BME280;2713;42.680;23.310;2023-03-13T04:37:13;95554.59;;;4.56;53.70
5380;BME280;2713;42.680;23.310;2023-03-13T04:39:58;95557.22;;;4.66;52.97
5380;BME280;2713;42.680;23.310;2023-03-13T04:42:49;95568.84;;;4.60;53.03
5380;BME280;2713;42.680;23.310;2023-03-13T04:45:36;95573.88;;;4.62;53.47
5380;BME280;2713;42.680;23.310;2023-03-13T04:48:21;95578.28;;;4.50;53.60
5380;BME280;2713;42.680;23.310;2023-03-13T04:51:01;95580.59;;;4.53;53.49
5380;BME280;2713;42.680;23.310;2023-03-13T04:53:50;95576.88;;;4.67;53.72
5380;BME280;2713;42.680;23.310;2023-03-13T04:56:30;95571.44;;;4.70;53.44
5380;BME280;2713;42.680;23.310;2023-03-13T04:59:17;95572.16;;;4.72;53.76
5380;BME280;2713;42.680;23.310;2023-03-13T05:02:03;95586.78;;;4.71;52.91
5380;BME280;2713;42.680;23.310;2023-03-13T05:04:59;95578.25;;;4.71;53.22
5380;BME280;2713;42.680;23.310;2023-03-13T05:07:49;95578.06;;;4.63;54.07
5380;BME280;2713;42.680;23.310;2023-03-13T05:10:25;95577.41;;;4.60;53.86
5380;BME280;2713;42.680;23.310;2023-03-13T05:13:14;95582.16;;;4.65;54.51
5380;BME280;2713;42.680;23.310;2023-03-13T05:16:05;95584.06;;;4.73;53.16
5380;BME280;2713;42.680;23.310;2023-03-13T05:18:50;95587.34;;;4.75;54.36
5380;BME280;2713;42.680;23.310;2023-03-13T05:21:24;95597.91;;;4.72;53.01
5380;BME280;2713;42.680;23.310;2023-03-13T05:24:00;95602.97;;;4.83;53.93
5380;BME280;2713;42.680;23.310;2023-03-13T05:26:48;95603.25;;;4.89;53.10
5380;BME280;2713;42.680;23.310;2023-03-13T05:29:42;95609.88;;;4.82;52.82
5380;BME280;2713;42.680;23.310;2023-03-13T05:32:29;95611.22;;;4.86;53.30
5380;BME280;2713;42.680;23.310;2023-03-13T05:35:04;95616.44;;;4.66;53.26
5380;BME280;2713;42.680;23.310;2023-03-13T05:37:53;95613.09;;;4.75;53.79
5380;BME280;2713;42.680;23.310;2023-03-13T05:40:34;95620.03;;;4.53;53.25
5380;BME280;2713;42.680;23.310;2023-03-13T05:43:24;95618.47;;;4.62;53.06
5380;BME280;2713;42.680;23.310;2023-03-13T05:46:10;95619.81;;;4.66;54.27
5380;BME280;2713;42.680;23.310;2023-03-13T05:49:09;95616.91;;;4.90;52.80
5380;BME280;2713;42.680;23.310;2023-03-13T05:52:02;95620.16;;;4.82;53.26
5380;BME280;2713;42.680;23.310;2023-03-13T05:54:29;95617.50;;;4.63;52.88
5380;BME280;2713;42.680;23.310;2023-03-13T05:57:21;95626.84;;;5.04;51.77
5380;BME280;2713;42.680;23.310;2023-03-13T06:00:12;95627.13;;;5.01;52.39
5380;BME280;2713;42.680;23.310;2023-03-13T06:02:46;95635.56;;;5.13;51.42
5380;BME280;2713;42.680;23.310;2023-03-13T06:05:18;95639.63;;;5.15;50.89
5380;BME280;2713;42.680;23.310;2023-03-13T06:07:45;95633.81;;;5.23;51.16
5380;BME280;2713;42.680;23.310;2023-03-13T06:10:14;95639.47;;;5.07;50.80
5380;BME280;2713;42.680;23.310;2023-03-13T06:12:41;95641.94;;;5.18;51.42
5380;BME280;2713;42.680;23.310;2023-03-13T06:15:11;95628.03;;;5.49;53.30
5380;BME280;2713;42.680;23.310;2023-03-13T06:17:54;95628.41;;;5.16;50.57
5380;BME280;2713;42.680;23.310;2023-03-13T06:20:21;95640.19;;;5.28;50.23
5380;BME280;2713;42.680;23.310;2023-03-13T06:22:48;95640.47;;;5.35;50.92
5380;BME280;2713;42.680;23.310;2023-03-13T06:25:15;95629.78;;;5.30;50.91
5380;BME280;2713;42.680;23.310;2023-03-13T06:27:41;95636.97;;;5.36;50.73
5380;BME280;2713;42.680;23.310;2023-03-13T06:30:10;95637.81;;;5.55;50.30
5380;BME280;2713;42.680;23.310;2023-03-13T06:32:36;95638.22;;;5.60;49.45
5380;BME280;2713;42.680;23.310;2023-03-13T06:35:05;95606.75;;;5.57;49.10
5380;BME280;2713;42.680;23.310;2023-03-13T06:37:32;95619.50;;;5.97;48.64
5380;BME280;2713;42.680;23.310;2023-03-13T06:40:00;95623.75;;;6.44;47.32
5380;BME280;2713;42.680;23.310;2023-03-13T06:42:26;95617.59;;;7.01;46.52
5380;BME280;2713;42.680;23.310;2023-03-13T06:44:53;95616.84;;;7.72;44.84
5380;BME280;2713;42.680;23.310;2023-03-13T06:47:20;95623.88;;;8.40;42.61
5380;BME280;2713;42.680;23.310;2023-03-13T06:49:47;95620.25;;;8.85;42.42
5380;BME280;2713;42.680;23.310;2023-03-13T06:52:16;95617.22;;;9.39;40.91
5380;BME280;2713;42.680;23.310;2023-03-13T06:54:52;95627.50;;;9.65;40.21
5380;BME280;2713;42.680;23.310;2023-03-13T06:57:19;95618.78;;;9.82;39.83
5380;BME280;2713;42.680;23.310;2023-03-13T06:59:46;95616.19;;;10.06;39.14
5380;BME280;2713;42.680;23.310;2023-03-13T07:02:15;95614.91;;;10.43;38.58
5380;BME280;2713;42.680;23.310;2023-03-13T07:04:42;95611.47;;;10.42;38.24
5380;BME280;2713;42.680;23.310;2023-03-13T07:07:10;95602.19;;;10.64;38.23
5380;BME280;2713;42.680;23.310;2023-03-13T07:09:38;95608.31;;;10.79;38.12
5380;BME280;2713;42.680;23.310;2023-03-13T07:12:06;95618.16;;;11.00;38.90
5380;BME280;2713;42.680;23.310;2023-03-13T07:14:32;95617.34;;;10.99;37.67
5380;BME280;2713;42.680;23.310;2023-03-13T07:16:59;95617.06;;;10.94;37.23
5380;BME280;2713;42.680;23.310;2023-03-13T07:19:26;95602.31;;;10.79;37.51
5380;BME280;2713;42.680;23.310;2023-03-13T07:21:53;95600.50;;;10.87;36.93
5380;BME280;2713;42.680;23.310;2023-03-13T07:24:21;95605.22;;;10.92;36.76
5380;BME280;2713;42.680;23.310;2023-03-13T07:26:49;95603.56;;;10.91;37.31
5380;BME280;2713;42.680;23.310;2023-03-13T07:29:16;95599.47;;;11.35;36.82
5380;BME280;2713;42.680;23.310;2023-03-13T07:31:43;95597.09;;;11.26;36.29
5380;BME280;2713;42.680;23.310;2023-03-13T07:34:10;95592.13;;;11.08;36.59
5380;BME280;2713;42.680;23.310;2023-03-13T07:36:36;95596.66;;;11.14;36.92
5380;BME280;2713;42.680;23.310;2023-03-13T07:39:05;95606.56;;;10.63;37.38
5380;BME280;2713;42.680;23.310;2023-03-13T07:41:32;95600.84;;;11.23;37.27
5380;BME280;2713;42.680;23.310;2023-03-13T07:44:01;95596.75;;;11.59;35.82
5380;BME280;2713;42.680;23.310;2023-03-13T07:46:27;95593.94;;;11.92;34.77
5380;BME280;2713;42.680;23.310;2023-03-13T07:48:54;95598.94;;;12.39;34.68
5380;BME280;2713;42.680;23.310;2023-03-13T07:51:23;95592.84;;;12.61;33.75
5380;BME280;2713;42.680;23.310;2023-03-13T07:53:50;95595.75;;;12.81;33.95
5380;BME280;2713;42.680;23.310;2023-03-13T07:56:19;95589.72;;;12.95;34.93
5380;BME280;2713;42.680;23.310;2023-03-13T07:58:47;95587.59;;;12.32;34.64
5380;BME280;2713;42.680;23.310;2023-03-13T08:01:16;95584.38;;;12.44;34.66
5380;BME280;2713;42.680;23.310;2023-03-13T08:03:44;95574.94;;;12.43;34.72
5380;BME280;2713;42.680;23.310;2023-03-13T08:06:15;95570.03;;;12.11;34.98
5380;BME280;2713;42.680;23.310;2023-03-13T08:08:42;95578.09;;;11.79;35.59
5380;BME280;2713;42.680;23.310;2023-03-13T08:11:10;95568.97;;;12.20;35.49
5380;BME280;2713;42.680;23.310;2023-03-13T08:13:38;95579.38;;;12.20;35.08
5380;BME280;2713;42.680;23.310;2023-03-13T08:16:07;95571.72;;;12.56;34.39
5380;BME280;2713;42.680;23.310;2023-03-13T08:18:37;95578.44;;;12.36;34.31
5380;BME280;2713;42.680;23.310;2023-03-13T08:21:06;95571.47;;;12.13;35.10
5380;BME280;2713;42.680;23.310;2023-03-13T08:23:33;95573.53;;;12.55;34.52
5380;BME280;2713;42.680;23.310;2023-03-13T08:26:02;95570.00;;;13.07;34.38
5380;BME280;2713;42.680;23.310;2023-03-13T08:28:29;95575.41;;;13.05;34.21
5380;BME280;2713;42.680;23.310;2023-03-13T08:30:55;95581.16;;;13.30;33.82
5380;BME280;2713;42.680;23.310;2023-03-13T08:33:22;95589.72;;;13.24;33.75
5380;BME280;2713;42.680;23.310;2023-03-13T08:35:51;95586.53;;;13.43;33.69
5380;BME280;2713;42.680;23.310;2023-03-13T08:38:17;95587.28;;;13.37;33.21
5380;BME280;2713;42.680;23.310;2023-03-13T08:40:44;95584.75;;;13.29;33.00
5380;BME280;2713;42.680;23.310;2023-03-13T08:43:11;95589.47;;;13.04;33.42
5380;BME280;2713;42.680;23.310;2023-03-13T08:45:38;95584.16;;;12.98;33.80
5380;BME280;2713;42.680;23.310;2023-03-13T08:48:05;95572.16;;;13.03;34.00
5380;BME280;2713;42.680;23.310;2023-03-13T08:50:32;95577.28;;;13.26;33.14
5380;BME280;2713;42.680;23.310;2023-03-13T08:53:01;95578.81;;;13.35;33.17
5380;BME280;2713;42.680;23.310;2023-03-13T08:55:28;95575.09;;;13.44;32.88
5380;BME280;2713;42.680;23.310;2023-03-13T08:57:54;95576.34;;;13.48;32.68
5380;BME280;2713;42.680;23.310;2023-03-13T09:00:21;95570.16;;;13.70;32.30
5380;BME280;2713;42.680;23.310;2023-03-13T09:02:48;95566.91;;;13.68;32.17
5380;BME280;2713;42.680;23.310;2023-03-13T09:05:15;95570.00;;;13.93;32.37
5380;BME280;2713;42.680;23.310;2023-03-13T09:07:42;95567.06;;;14.03;32.16
5380;BME280;2713;42.680;23.310;2023-03-13T09:10:10;95570.41;;;13.97;32.86
5380;BME280;2713;42.680;23.310;2023-03-13T09:12:37;95569.03;;;14.01;32.39
5380;BME280;2713;42.680;23.310;2023-03-13T09:15:05;95567.09;;;13.88;32.43
5380;BME280;2713;42.680;23.310;2023-03-13T09:17:32;95561.94;;;13.95;32.01
5380;BME280;2713;42.680;23.310;2023-03-13T09:19:58;95550.13;;;13.78;31.88
5380;BME280;2713;42.680;23.310;2023-03-13T09:22:25;95556.09;;;13.14;33.04
5380;BME280;2713;42.680;23.310;2023-03-13T09:24:52;95559.50;;;12.56;34.27
5380;BME280;2713;42.680;23.310;2023-03-13T09:27:20;95561.13;;;11.83;35.82
5380;BME280;2713;42.680;23.310;2023-03-13T09:29:47;95564.41;;;12.37;34.99
5380;BME280;2713;42.680;23.310;2023-03-13T09:32:14;95558.50;;;12.57;34.89
5380;BME280;2713;42.680;23.310;2023-03-13T09:34:41;95568.66;;;12.52;34.56
5380;BME280;2713;42.680;23.310;2023-03-13T09:37:08;95559.84;;;12.83;34.50
5380;BME280;2713;42.680;23.310;2023-03-13T09:39:35;95563.19;;;13.20;33.49
5380;BME280;2713;42.680;23.310;2023-03-13T09:42:08;95558.81;;;13.42;33.84
5380;BME280;2713;42.680;23.310;2023-03-13T09:44:43;95559.69;;;13.70;33.01
5380;BME280;2713;42.680;23.310;2023-03-13T09:47:17;95552.50;;;13.37;33.70
5380;BME280;2713;42.680;23.310;2023-03-13T09:49:48;95547.53;;;13.20;34.08
5380;BME280;2713;42.680;23.310;2023-03-13T09:52:22;95545.53;;;13.23;33.62
5380;BME280;2713;42.680;23.310;2023-03-13T09:54:52;95542.78;;;13.45;33.77
5380;BME280;2713;42.680;23.310;2023-03-13T09:57:26;95546.41;;;13.87;33.07
5380;BME280;2713;42.680;23.310;2023-03-13T10:00:02;95537.91;;;14.06;32.67
5380;BME280;2713;42.680;23.310;2023-03-13T10:02:36;95545.22;;;13.89;32.78
5380;BME280;2713;42.680;23.310;2023-03-13T10:05:11;95543.09;;;13.57;33.35
5380;BME280;2713;42.680;23.310;2023-03-13T10:07:38;95537.19;;;13.69;33.08
5380;BME280;2713;42.680;23.310;2023-03-13T10:10:13;95527.47;;;13.85;33.28
5380;BME280;2713;42.680;23.310;2023-03-13T10:12:44;95529.69;;;14.09;32.16
5380;BME280;2713;42.680;23.310;2023-03-13T10:15:33;95527.34;;;13.93;33.01
5380;BME280;2713;42.680;23.310;2023-03-13T10:18:13;95499.94;;;14.10;32.41
5380;BME280;2713;42.680;23.310;2023-03-13T10:20:42;95504.38;;;13.88;32.72
5380;BME280;2713;42.680;23.310;2023-03-13T10:23:14;95502.66;;;13.74;32.90
5380;BME280;2713;42.680;23.310;2023-03-13T10:25:41;95503.63;;;13.94;32.87
5380;BME280;2713;42.680;23.310;2023-03-13T10:28:10;95502.22;;;13.70;32.92
5380;BME280;2713;42.680;23.310;2023-03-13T10:30:43;95493.22;;;13.31;33.54
5380;BME280;2713;42.680;23.310;2023-03-13T10:33:19;95493.00;;;13.32;33.78
5380;BME280;2713;42.680;23.310;2023-03-13T10:35:59;95494.59;;;13.12;33.83
5380;BME280;2713;42.680;23.310;2023-03-13T10:38:27;95479.81;;;13.19;33.85
5380;BME280;2713;42.680;23.310;2023-03-13T10:40:57;95479.78;;;13.34;33.93
5380;BME280;2713;42.680;23.310;2023-03-13T10:43:26;95477.88;;;12.92;34.40
5380;BME280;2713;42.680;23.310;2023-03-13T10:45:55;95475.13;;;12.20;35.08
5380;BME280;2713;42.680;23.310;2023-03-13T10:48:24;95463.72;;;12.50;35.26
5380;BME280;2713;42.680;23.310;2023-03-13T10:50:53;95470.09;;;12.62;34.97
5380;BME280;2713;42.680;23.310;2023-03-13T10:53:25;95469.41;;;13.04;34.75
5380;BME280;2713;42.680;23.310;2023-03-13T10:55:53;95441.88;;;12.51;34.93
5380;BME280;2713;42.680;23.310;2023-03-13T10:58:23;95464.13;;;12.98;34.63
5380;BME280;2713;42.680;23.310;2023-03-13T11:01:13;95460.13;;;12.66;34.69
5380;BME280;2713;42.680;23.310;2023-03-13T11:03:42;95451.41;;;12.74;35.25
5380;BME280;2713;42.680;23.310;2023-03-13T11:06:24;95446.06;;;12.82;34.96
5380;BME280;2713;42.680;23.310;2023-03-13T11:09:02;95441.34;;;12.92;35.21
5380;BME280;2713;42.680;23.310;2023-03-13T11:11:29;95429.38;;;12.61;35.37
5380;BME280;2713;42.680;23.310;2023-03-13T11:14:07;95430.19;;;12.62;35.23
5380;BME280;2713;42.680;23.310;2023-03-13T11:16:41;95438.25;;;13.03;34.74
5380;BME280;2713;42.680;23.310;2023-03-13T11:19:22;95431.78;;;13.56;34.20
5380;BME280;2713;42.680;23.310;2023-03-13T11:22:13;95432.41;;;13.15;34.50
5380;BME280;2713;42.680;23.310;2023-03-13T11:24:49;95419.66;;;13.48;34.19
5380;BME280;2713;42.680;23.310;2023-03-13T11:27:26;95410.75;;;13.64;34.14
5380;BME280;2713;42.680;23.310;2023-03-13T11:30:04;95412.72;;;13.83;33.39
5380;BME280;2713;42.680;23.310;2023-03-13T11:32:40;95408.97;;;13.43;34.18
5380;BME280;2713;42.680;23.310;2023-03-13T11:35:17;95406.72;;;13.19;35.05
5380;BME280;2713;42.680;23.310;2023-03-13T11:37:49;95400.97;;;13.24;34.62
5380;BME280;2713;42.680;23.310;2023-03-13T11:40:19;95394.47;;;13.41;34.27
5380;BME280;2713;42.680;23.310;2023-03-13T11:43:06;95395.13;;;13.49;34.60
5380;BME280;2713;42.680;23.310;2023-03-13T11:45:57;95383.72;;;13.50;34.59
5380;BME280;2713;42.680;23.310;2023-03-13T11:48:55;95370.00;;;13.69;33.85
5380;BME280;2713;42.680;23.310;2023-03-13T11:51:31;95369.34;;;13.95;33.10
5380;BME280;2713;42.680;23.310;2023-03-13T11:54:32;95365.69;;;14.24;37.91
5380;BME280;2713;42.680;23.310;2023-03-13T11:57:06;95362.75;;;15.99;64.58
5380;BME280;2713;42.680;23.310;2023-03-13T11:59:40;95358.75;;;16.67;48.03
5380;BME280;2713;42.680;23.310;2023-03-13T12:02:17;95345.00;;;16.65;48.10
5380;BME280;2713;42.680;23.310;2023-03-13T12:04:51;95352.56;;;16.42;38.51
5380;BME280;2713;42.680;23.310;2023-03-13T12:07:24;95348.66;;;16.58;40.19
5380;BME280;2713;42.680;23.310;2023-03-13T12:09:55;95340.28;;;16.81;37.72
5380;BME280;2713;42.680;23.310;2023-03-13T12:12:34;95331.03;;;16.71;37.72
5380;BME280;2713;42.680;23.310;2023-03-13T12:15:15;95334.69;;;16.70;36.63
5380;BME280;2713;42.680;23.310;2023-03-13T12:17:49;95314.63;;;16.38;34.54
5380;BME280;2713;42.680;23.310;2023-03-13T12:20:22;95328.22;;;16.22;31.94
5380;BME280;2713;42.680;23.310;2023-03-13T12:22:55;95315.25;;;15.63;31.70
5380;BME280;2713;42.680;23.310;2023-03-13T12:25:24;95325.09;;;15.28;33.16
5380;BME280;2713;42.680;23.310;2023-03-13T12:27:57;95322.19;;;14.51;33.28
5380;BME280;2713;42.680;23.310;2023-03-13T12:30:34;95328.44;;;14.15;33.83
5380;BME280;2713;42.680;23.310;2023-03-13T12:33:12;95325.94;;;14.01;34.07
5380;BME280;2713;42.680;23.310;2023-03-13T12:35:46;95305.13;;;14.14;34.58
5380;BME280;2713;42.680;23.310;2023-03-13T12:38:20;95311.50;;;14.05;34.08
5380;BME280;2713;42.680;23.310;2023-03-13T12:40:52;95315.88;;;13.98;34.56
5380;BME280;2713;42.680;23.310;2023-03-13T12:43:27;95319.59;;;13.76;34.88
5380;BME280;2713;42.680;23.310;2023-03-13T12:46:18;95287.53;;;13.26;35.37
5380;BME280;2713;42.680;23.310;2023-03-13T12:49:00;95313.63;;;13.54;34.43
5380;BME280;2713;42.680;23.310;2023-03-13T12:51:48;95316.91;;;13.62;48.75
5380;BME280;2713;42.680;23.310;2023-03-13T12:54:34;95310.91;;;14.03;36.18
5380;BME280;2713;42.680;23.310;2023-03-13T12:57:12;95314.06;;;13.57;35.04
5380;BME280;2713;42.680;23.310;2023-03-13T12:59:44;95310.84;;;13.55;34.81
5380;BME280;2713;42.680;23.310;2023-03-13T13:02:16;95317.72;;;13.63;35.02
5380;BME280;2713;42.680;23.310;2023-03-13T13:04:45;95317.28;;;13.59;34.86
5380;BME280;2713;42.680;23.310;2023-03-13T13:07:22;95314.44;;;13.54;34.68
5380;BME280;2713;42.680;23.310;2023-03-13T13:10:16;95322.88;;;13.56;34.46
5380;BME280;2713;42.680;23.310;2023-03-13T13:12:45;95319.28;;;13.30;34.77
5380;BME280;2713;42.680;23.310;2023-03-13T13:15:19;95318.94;;;13.11;34.83
5380;BME280;2713;42.680;23.310;2023-03-13T13:17:58;95317.75;;;13.14;34.99
5380;BME280;2713;42.680;23.310;2023-03-13T13:20:39;95316.81;;;13.22;34.89
5380;BME280;2713;42.680;23.310;2023-03-13T13:23:29;95315.38;;;13.47;34.26
5380;BME280;2713;42.680;23.310;2023-03-13T13:32:39;95306.72;;;13.18;34.37
5380;BME280;2713;42.680;23.310;2023-03-13T13:35:31;95307.78;;;13.24;34.82
5380;BME280;2713;42.680;23.310;2023-03-13T13:41:36;95291.75;;;13.27;35.11
5380;BME280;2713;42.680;23.310;2023-03-13T13:44:24;95281.84;;;13.50;34.31
5380;BME280;2713;42.680;23.310;2023-03-13T13:46:52;95282.53;;;13.31;34.17
5380;BME280;2713;42.680;23.310;2023-03-13T13:49:21;95284.47;;;13.50;34.70
5380;BME280;2713;42.680;23.310;2023-03-13T13:52:18;95285.94;;;13.59;34.28
5380;BME280;2713;42.680;23.310;2023-03-13T13:54:53;95289.56;;;13.58;34.51